Time;durP1;ratioP1;P1;durP2;ratioP2;P2;SDS_P1;SDS_P2;PMS_P1;PMS_P2;Temp;Humidity;BMP_temperature;BMP_pressure;BME280_temperature;BME280_humidity;BME280_pressure;Samples;Min_cycle;Max_cycle;Signal;HPM_P1;HPM_P2
2021/03/24 02:21:01;;;;;;;68.17;46.47;;;6.60;99.90;;;;;;5983100;23;20412;-86
2021/03/24 02:23:48;;;;;;;62.47;45.07;;;6.50;99.90;;;;;;6115750;23;20452;-86
2021/03/24 02:26:21;;;;;;;63.50;45.37;;;6.50;99.90;;;;;;6152507;23;20377;-87
2021/03/24 02:28:51;;;;;;;62.97;46.77;;;6.50;99.90;;;;;;6116797;23;20447;-86
2021/03/24 02:31:22;;;;;;;61.57;46.13;;;6.50;99.90;;;;;;6116741;23;20420;-86
2021/03/24 02:33:53;;;;;;;66.67;46.80;;;6.40;99.90;;;;;;6117088;23;20409;-86
2021/03/24 02:36:26;;;;;;;67.78;44.50;;;6.50;99.90;;;;;;6139782;23;20417;-86
2021/03/24 02:38:59;;;;;;;71.30;44.40;;;6.60;99.90;;;;;;6116333;23;20201;-86
2021/03/24 02:41:30;;;;;;;71.30;47.20;;;6.60;99.90;;;;;;6151595;23;20400;-86
2021/03/24 02:51:45;;;;;;;77.67;51.30;;;6.40;99.90;;;;;;5846163;23;20419;-86
2021/03/24 02:54:20;;;;;;;69.73;49.00;;;6.40;99.90;;;;;;6125789;23;20420;-86
2021/03/24 02:56:48;;;;;;;72.67;48.13;;;6.40;99.90;;;;;;6125089;23;20405;-86
2021/03/24 02:59:26;;;;;;;61.83;44.67;;;6.40;99.90;;;;;;6121565;23;20456;-86
2021/03/24 03:02:04;;;;;;;62.93;46.63;;;6.40;99.90;;;;;;6119590;23;20868;-86
2021/03/24 03:05:22;;;;;;;;;;;;;;;;;;;;;
2021/03/24 03:13:42;;;;;;;;;;;;;;;;;;;;;
2021/03/24 03:36:26;;;;;;;;;;;;;;;;;;;;;
2021/03/24 03:49:59;;;;;;;69.63;48.20;;;6.20;99.90;;;;;;5763125;24;20444;-87
2021/03/24 03:57:35;;;;;;;66.73;48.57;;;6.30;99.90;;;;;;5823442;24;20573;-87
2021/03/24 04:00:20;;;;;;;68.80;50.53;;;6.30;99.90;;;;;;5940546;24;20412;-87
2021/03/24 04:03:32;;;;;;;67.83;46.50;;;6.20;99.90;;;;;;6072634;23;20477;-87
2021/03/24 05:30:10;;;;;;;71.70;52.13;;;6.00;99.90;;;;;;5847457;24;20448;-87
2021/03/24 06:03:58;;;;;;;76.32;52.28;;;5.70;99.90;;;;;;5912145;24;20970;-87
2021/03/24 06:07:02;;;;;;;77.60;51.70;;;5.90;99.90;;;;;;5905537;24;20183;-87
2021/03/24 06:10:00;;;;;;;75.73;52.53;;;5.80;99.90;;;;;;5899070;24;20502;-87
2021/03/24 06:12:49;;;;;;;78.13;55.13;;;5.80;99.90;;;;;;5958940;24;20879;-87
2021/03/24 06:15:55;;;;;;;76.67;52.07;;;5.80;99.90;;;;;;5943552;24;20807;-87
2021/03/24 06:38:45;;;;;;;80.77;57.20;;;5.90;99.90;;;;;;6055786;23;20428;-86
2021/03/24 06:45:58;;;;;;;74.60;54.90;;;6.00;99.90;;;;;;6065410;23;20412;-86
2021/03/24 06:48:46;;;;;;;78.13;53.40;;;6.00;99.90;;;;;;6049294;23;20460;-86
2021/03/24 06:51:54;;;;;;;89.30;59.03;;;6.00;99.90;;;;;;6025364;23;20416;-86
2021/03/24 06:55:09;;;;;;;81.47;58.00;;;6.10;99.90;;;;;;6058612;23;20396;-86
2021/03/24 06:58:15;;;;;;;79.23;58.83;;;6.10;99.90;;;;;;6057867;23;20409;-86
2021/03/24 07:01:18;;;;;;;78.20;54.20;;;6.20;99.90;;;;;;6112538;23;20424;-86
2021/03/24 07:04:24;;;;;;;78.80;53.77;;;6.30;99.90;;;;;;6136957;23;20421;-86
2021/03/24 07:07:52;;;;;;;74.07;54.20;;;6.30;99.90;;;;;;6112602;23;20512;-86
2021/03/24 07:14:59;;;;;;;78.40;56.47;;;6.40;99.90;;;;;;6141977;23;20480;-86
2021/03/24 07:18:34;;;;;;;79.47;55.27;;;6.50;99.90;;;;;;6146069;23;20390;-86
2021/03/24 07:21:42;;;;;;;77.97;54.40;;;6.60;99.90;;;;;;6093086;23;20409;-86
2021/03/24 07:24:31;;;;;;;86.03;58.50;;;6.60;99.90;;;;;;6053371;23;20415;-86
2021/03/24 07:35:39;;;;;;;75.53;53.90;;;6.90;99.90;;;;;;6081907;23;20410;-87
2021/03/24 08:07:12;;;;;;;78.80;53.50;;;8.10;99.90;;;;;;5742546;23;20986;-85
2021/03/24 08:10:06;;;;;;;77.97;51.93;;;8.30;99.90;;;;;;6053826;23;20277;-85
2021/03/24 08:13:39;;;;;;;82.73;53.17;;;8.40;99.90;;;;;;6049543;23;20470;-87
2021/03/24 08:16:34;;;;;;;76.57;53.78;;;8.50;99.90;;;;;;6050226;23;20424;-87
2021/03/24 08:19:28;;;;;;;70.10;50.00;;;8.60;99.90;;;;;;6078670;23;20525;-87
2021/03/24 08:22:16;;;;;;;75.00;52.17;;;8.70;99.90;;;;;;6133527;23;20417;-87
2021/03/24 08:24:58;;;;;;;69.97;49.37;;;8.80;99.90;;;;;;6133856;23;20956;-87
2021/03/24 08:27:40;;;;;;;79.63;53.97;;;8.90;99.90;;;;;;6133526;23;20440;-87
2021/03/24 08:31:49;;;;;;;72.40;51.30;;;8.90;99.90;;;;;;6145021;23;20410;-87
2021/03/24 08:43:44;;;;;;;70.53;50.33;;;9.30;99.90;;;;;;5817672;24;20827;-85
2021/03/24 08:46:21;;;;;;;68.77;48.23;;;9.50;99.90;;;;;;5886500;24;20591;-85
2021/03/24 08:48:55;;;;;;;70.83;51.00;;;9.60;99.90;;;;;;5974589;23;20454;-85
2021/03/24 08:51:56;;;;;;;74.27;48.17;;;9.70;99.90;;;;;;5968159;24;20757;-85
2021/03/24 09:24:12;;;;;;;63.17;46.73;;;11.10;99.90;;;;;;5898300;24;20415;-84
2021/03/24 09:27:17;;;;;;;61.63;43.87;;;11.30;99.90;;;;;;6101584;23;20758;-84
2021/03/24 09:30:39;;;;;;;60.57;45.17;;;11.50;99.90;;;;;;6096803;23;20806;-85
2021/03/24 09:33:38;;;;;;;59.00;42.87;;;11.60;99.90;;;;;;6109545;23;20401;-84
2021/03/24 09:36:34;;;;;;;59.20;43.67;;;11.70;99.90;;;;;;6110811;23;20417;-84
2021/03/24 09:39:16;;;;;;;59.63;43.73;;;11.90;99.90;;;;;;6107897;23;20436;-85
2021/03/24 09:41:50;;;;;;;56.07;42.53;;;11.90;99.90;;;;;;6110607;23;20421;-84
2021/03/24 09:44:30;;;;;;;57.20;41.50;;;12.00;99.90;;;;;;6134351;23;20409;-85
2021/03/24 09:47:35;;;;;;;63.83;44.80;;;12.10;99.90;;;;;;6145159;23;20409;-85
2021/03/24 10:07:11;;;;;;;58.70;43.57;;;12.70;99.90;;;;;;5819759;24;20421;-86
2021/03/24 10:09:52;;;;;;;58.70;41.70;;;12.80;99.90;;;;;;5878204;24;20441;-86
2021/03/24 10:12:30;;;;;;;52.60;38.63;;;12.80;99.90;;;;;;5887300;24;20995;-84
2021/03/24 10:15:12;;;;;;;60.70;39.17;;;12.80;99.90;;;;;;5980662;23;20437;-84
2021/03/24 10:17:53;;;;;;;50.60;37.17;;;12.70;99.90;;;;;;5968310;24;20424;-85
2021/03/24 10:21:05;;;;;;;;;;;;;;;;;;;;;
2021/03/24 10:38:53;;;;;;;;;;;;;;;;;;;;;
2021/03/24 10:42:22;;;;;;;;;;;;;;;;;;;;;
2021/03/24 10:49:28;;;;;;;53.63;38.60;;;12.90;99.90;;;;;;5965236;24;20537;-84
2021/03/24 10:53:14;;;;;;;50.53;37.40;;;13.00;99.90;;;;;;6081215;23;20434;-84
2021/03/24 11:00:41;;;;;;;53.17;38.07;;;13.20;99.90;;;;;;5853605;24;20433;-84
2021/03/24 11:04:30;;;;;;;;;;;;;;;;;;;;;
2021/03/24 11:14:32;;;;;;;48.63;35.50;;;13.40;99.90;;;;;;5935936;24;20450;-84
2021/03/24 11:17:09;;;;;;;46.87;34.33;;;13.50;99.90;;;;;;5967595;24;20410;-84
2021/03/24 11:19:43;;;;;;;52.37;37.93;;;13.50;99.90;;;;;;5966435;24;20804;-84
2021/03/24 11:22:25;;;;;;;48.90;34.67;;;13.50;99.90;;;;;;5966973;24;20422;-84
2021/03/24 11:24:57;;;;;;;48.70;37.70;;;13.50;99.90;;;;;;5965412;24;20421;-84
2021/03/24 11:27:36;;;;;;;44.37;34.37;;;13.50;99.90;;;;;;5966766;24;20481;-84
2021/03/24 11:30:17;;;;;;;43.70;34.73;;;13.60;99.90;;;;;;5966875;24;20425;-84
2021/03/24 11:32:58;;;;;;;46.05;34.17;;;13.70;99.90;;;;;;5967156;24;20426;-84
2021/03/24 11:35:31;;;;;;;43.70;32.23;;;13.70;99.90;;;;;;6000083;24;20720;-84
2021/03/24 11:38:25;;;;;;;43.40;33.17;;;13.80;99.90;;;;;;5966535;24;20453;-84
2021/03/24 11:41:06;;;;;;;43.63;32.43;;;13.80;99.90;;;;;;5984636;23;20415;-84
2021/03/24 11:43:37;;;;;;;46.70;36.45;;;13.90;99.90;;;;;;6050642;23;20425;-84
2021/03/24 11:46:20;;;;;;;47.27;37.30;;;13.90;99.90;;;;;;6051928;23;20176;-84
2021/03/24 11:49:26;;;;;;;48.70;35.33;;;13.90;99.90;;;;;;6085624;23;20498;-84
2021/03/24 11:52:30;;;;;;;48.67;34.07;;;13.90;99.90;;;;;;6035411;23;20463;-84
2021/03/24 11:55:25;;;;;;;49.07;34.37;;;13.90;99.90;;;;;;6048559;23;20510;-84
2021/03/24 11:57:58;;;;;;;47.83;36.90;;;14.00;99.90;;;;;;6050793;23;20419;-84
2021/03/24 12:00:41;;;;;;;41.23;31.60;;;14.00;99.90;;;;;;6051762;23;20415;-84
2021/03/24 12:03:48;;;;;;;44.33;31.63;;;14.10;99.90;;;;;;6050554;23;20458;-84
2021/03/24 12:06:31;;;;;;;41.80;29.40;;;14.20;99.90;;;;;;6051281;23;20411;-84
2021/03/24 12:09:09;;;;;;;41.20;30.10;;;14.20;99.90;;;;;;6052989;23;20455;-83
2021/03/24 12:11:41;;;;;;;46.23;34.13;;;14.20;99.90;;;;;;6051228;23;20784;-84
2021/03/24 12:14:17;;;;;;;48.17;33.40;;;14.20;99.90;;;;;;6064395;23;20530;-84
2021/03/24 12:16:49;;;;;;;47.93;33.93;;;14.20;99.90;;;;;;6080045;23;20417;-84
2021/03/24 12:19:31;;;;;;;40.10;31.00;;;14.30;99.90;;;;;;6079715;23;20438;-84
2021/03/24 12:22:01;;;;;;;41.00;29.20;;;14.30;99.90;;;;;;6079259;23;20414;-84
2021/03/24 12:24:35;;;;;;;33.70;27.13;;;14.40;99.90;;;;;;6079525;23;20454;-84
2021/03/24 12:27:09;;;;;;;36.67;26.50;;;14.40;99.90;;;;;;6079372;23;20442;-84
2021/03/24 12:29:37;;;;;;;35.80;27.77;;;14.50;99.90;;;;;;6079168;23;20446;-84
2021/03/24 12:32:08;;;;;;;36.17;26.80;;;14.50;99.90;;;;;;6112887;23;20406;-84
2021/03/24 12:34:44;;;;;;;35.33;26.20;;;14.50;99.90;;;;;;6078843;23;20472;-84
2021/03/24 12:37:25;;;;;;;32.03;24.70;;;14.60;99.90;;;;;;6078229;23;20418;-84
2021/03/24 12:40:07;;;;;;;30.93;25.23;;;14.60;99.90;;;;;;6079397;23;20446;-84
2021/03/24 12:42:34;;;;;;;33.53;26.07;;;14.60;99.90;;;;;;6078835;23;20417;-84
2021/03/24 12:45:29;;;;;;;33.57;24.17;;;14.60;99.90;;;;;;6112593;23;20417;-84
2021/03/24 12:48:08;;;;;;;32.07;24.40;;;14.70;99.90;;;;;;6079773;23;20862;-85
2021/03/24 12:50:41;;;;;;;33.20;25.17;;;14.70;99.90;;;;;;6112933;23;20414;-84
2021/03/24 12:53:20;;;;;;;37.67;25.43;;;14.70;99.90;;;;;;6079306;23;20420;-84
2021/03/24 12:55:56;;;;;;;34.63;25.47;;;14.80;99.90;;;;;;6078915;23;20469;-84
2021/03/24 12:58:44;;;;;;;33.07;24.50;;;14.80;99.90;;;;;;6078756;23;20533;-84
2021/03/24 13:01:34;;;;;;;35.25;27.25;;;14.90;99.90;;;;;;6077664;23;20444;-84
2021/03/24 13:04:38;;;;;;;36.37;27.07;;;15.00;99.90;;;;;;6078809;23;20174;-84
2021/03/24 13:07:36;;;;;;;36.50;26.53;;;15.00;99.90;;;;;;6078732;23;20469;-84
2021/03/24 13:10:45;;;;;;;37.30;26.25;;;15.10;99.90;;;;;;6056597;23;20438;-84
2021/03/24 13:13:29;;;;;;;34.70;25.53;;;15.10;99.90;;;;;;6079313;23;20559;-84
2021/03/24 13:16:01;;;;;;;33.67;25.70;;;15.10;99.90;;;;;;6079531;23;20384;-84
2021/03/24 13:18:42;;;;;;;35.47;26.97;;;15.20;99.90;;;;;;6079351;23;20449;-84
2021/03/24 13:21:31;;;;;;;43.70;28.53;;;15.20;99.90;;;;;;6079887;23;20409;-84
2021/03/24 13:24:26;;;;;;;39.87;28.17;;;15.20;99.90;;;;;;6113434;23;20390;-83
2021/03/24 13:27:00;;;;;;;39.43;28.03;;;15.20;99.90;;;;;;6079055;23;20406;-83
2021/03/24 13:29:40;;;;;;;35.43;27.57;;;15.30;99.90;;;;;;6078715;23;20453;-84
2021/03/24 13:32:22;;;;;;;34.50;26.90;;;15.30;99.90;;;;;;6078969;23;20417;-84
2021/03/24 13:34:58;;;;;;;36.83;27.37;;;15.30;99.90;;;;;;6079076;23;20808;-84
2021/03/24 13:37:35;;;;;;;34.10;25.27;;;15.40;99.90;;;;;;6078561;23;20906;-84
2021/03/24 13:51:08;;;;;;;;;;;;;;;;;;;;;
2021/03/24 14:05:17;;;;;;;;;;;;;;;;;;;;;
2021/03/24 14:08:32;;;;;;;33.73;25.93;;;15.60;99.90;;;;;;5901018;24;20460;-84
2021/03/24 14:16:27;;;;;;;;;;;;;;;;;;;;;
2021/03/24 14:19:51;;;;;;;31.40;24.97;;;15.70;99.90;;;;;;6055400;23;20750;-85
2021/03/24 14:26:48;;;;;;;34.03;27.33;;;15.70;99.90;;;;;;5875593;24;20433;-85
2021/03/24 14:36:53;;;;;;;;;;;;;;;;;;;;;
2021/03/24 14:44:33;;;;;;;32.87;24.83;;;15.80;99.30;;;;;;6042412;23;20406;-85
2021/03/24 14:47:32;;;;;;;31.70;24.37;;;15.80;99.10;;;;;;6016484;23;20486;-85
2021/03/24 14:50:34;;;;;;;35.17;26.50;;;15.80;99.10;;;;;;6020960;23;20921;-85
2021/03/24 14:53:37;;;;;;;34.47;25.73;;;15.70;99.20;;;;;;6029236;23;20417;-85
2021/03/24 14:56:30;;;;;;;33.23;25.47;;;15.70;99.20;;;;;;6002814;23;20403;-85
2021/03/24 14:59:30;;;;;;;33.27;24.40;;;15.70;99.00;;;;;;6050457;23;20495;-85
2021/03/24 15:02:34;;;;;;;37.07;24.83;;;15.70;99.10;;;;;;6025078;23;20775;-85
2021/03/24 15:05:30;;;;;;;35.37;24.70;;;15.70;99.00;;;;;;6022672;23;20489;-85
2021/03/24 15:09:00;;;;;;;;;;;;;;;;;;;;;
2021/03/24 15:12:48;;;;;;;31.03;25.10;;;15.80;98.90;;;;;;5944140;24;20822;-84
2021/03/24 15:15:51;;;;;;;33.40;25.57;;;15.70;98.90;;;;;;5927106;24;20465;-84
2021/03/24 15:19:45;;;;;;;;;;;;;;;;;;;;;
2021/03/24 15:23:36;;;;;;;30.20;25.37;;;15.80;98.90;;;;;;5957130;24;20476;-84
2021/03/24 15:36:50;;;;;;;34.63;26.87;;;15.80;98.80;;;;;;5893529;24;20447;-84
2021/03/24 15:40:42;;;;;;;32.10;24.67;;;15.80;98.80;;;;;;5934819;24;20468;-84
2021/03/24 15:44:03;;;;;;;36.75;28.98;;;15.70;98.80;;;;;;6041000;23;20414;-84
2021/03/24 15:47:38;;;;;;;;;;;;;;;;;;;;;
2021/03/24 15:50:54;;;;;;;35.50;28.13;;;15.70;98.20;;;;;;5920673;23;20424;-84
2021/03/24 15:57:43;;;;;;;30.43;23.10;;;15.70;97.60;;;;;;5939105;23;20201;-84
2021/03/24 16:04:49;;;;;;;31.60;23.07;;;15.60;97.90;;;;;;5971212;24;20429;-85
2021/03/24 16:07:41;;;;;;;32.90;23.80;;;15.50;97.90;;;;;;5951204;24;20476;-85
2021/03/24 16:10:24;;;;;;;36.57;26.07;;;15.50;98.10;;;;;;5988020;23;20452;-85
2021/03/24 16:13:05;;;;;;;38.10;25.90;;;15.40;98.10;;;;;;6021882;23;20412;-85
2021/03/24 16:16:04;;;;;;;36.73;23.50;;;15.40;98.10;;;;;;6022784;23;20418;-83
2021/03/24 16:19:02;;;;;;;31.77;23.40;;;15.30;98.10;;;;;;6025756;23;20447;-85
2021/03/24 16:21:42;;;;;;;32.07;23.90;;;15.30;98.50;;;;;;5993325;23;20452;-85
2021/03/24 16:24:30;;;;;;;28.87;24.27;;;15.20;98.20;;;;;;6084190;23;20412;-86
2021/03/24 16:27:25;;;;;;;;;;;;;;;;;;;;;
2021/03/24 16:30:01;;;;;;;34.27;25.23;;;15.20;98.10;;;;;;6137888;23;20443;-85
2021/03/24 16:33:24;;;;;;;35.30;24.13;;;15.10;98.10;;;;;;6147083;23;20813;-85
2021/03/24 16:36:41;;;;;;;28.87;21.80;;;15.10;98.00;;;;;;6146079;23;20421;-85
2021/03/24 16:39:47;;;;;;;35.33;25.70;;;15.10;98.00;;;;;;6141636;23;20403;-85
2021/03/24 16:42:41;;;;;;;32.90;23.97;;;15.10;98.00;;;;;;6144980;23;20388;-85
2021/03/24 16:45:42;;;;;;;31.60;24.50;;;15.00;98.00;;;;;;6144591;23;20422;-85
2021/03/24 16:48:46;;;;;;;33.30;23.57;;;15.00;98.00;;;;;;6144402;23;20441;-85
2021/03/24 16:51:42;;;;;;;34.87;25.57;;;15.00;98.10;;;;;;6143488;23;20421;-85
2021/03/24 16:54:16;;;;;;;30.73;22.37;;;15.00;98.10;;;;;;6145773;23;20467;-85
2021/03/24 16:57:23;;;;;;;32.03;23.97;;;15.00;98.10;;;;;;6142040;23;20409;-85
2021/03/24 16:59:58;;;;;;;32.93;23.70;;;14.90;98.00;;;;;;6124687;23;20415;-85
2021/03/24 17:02:36;;;;;;;33.40;25.07;;;14.80;98.00;;;;;;6144809;23;20428;-85
2021/03/24 17:05:22;;;;;;;35.03;24.07;;;14.80;98.00;;;;;;6145722;23;20457;-85
2021/03/24 17:08:01;;;;;;;33.83;23.60;;;14.80;98.00;;;;;;6146975;23;20448;-84
2021/03/24 17:10:57;;;;;;;33.83;25.10;;;14.80;98.00;;;;;;6141498;23;20414;-85
2021/03/24 17:13:42;;;;;;;34.33;24.87;;;14.80;97.80;;;;;;6133736;23;20184;-85
2021/03/24 17:16:24;;;;;;;36.63;25.27;;;14.70;97.80;;;;;;6145395;23;20786;-85
2021/03/24 17:19:01;;;;;;;30.97;23.93;;;14.70;97.90;;;;;;6134499;23;20432;-85
2021/03/24 17:21:35;;;;;;;35.87;25.20;;;14.60;98.00;;;;;;6133586;23;20431;-85
2021/03/24 17:24:35;;;;;;;32.67;24.27;;;14.60;98.00;;;;;;6134781;23;20420;-85
2021/03/24 17:27:10;;;;;;;34.80;25.27;;;14.50;98.00;;;;;;6151198;23;20756;-85
2021/03/24 17:29:39;;;;;;;31.13;23.40;;;14.50;98.10;;;;;;6133347;23;20441;-85
2021/03/24 17:32:25;;;;;;;34.77;27.07;;;14.40;98.40;;;;;;6133943;23;20428;-85
2021/03/24 17:35:14;;;;;;;35.33;24.33;;;14.30;98.20;;;;;;6134009;23;20484;-84
2021/03/24 17:37:57;;;;;;;34.20;25.97;;;14.30;98.30;;;;;;6133389;23;20391;-84
2021/03/24 17:40:40;;;;;;;37.57;26.13;;;14.20;98.30;;;;;;6134269;23;20433;-85
2021/03/24 17:43:26;;;;;;;33.60;26.07;;;14.10;98.40;;;;;;6133263;23;20392;-86
2021/03/24 17:46:04;;;;;;;36.03;24.97;;;14.10;98.40;;;;;;6132839;23;20417;-85
2021/03/24 17:48:46;;;;;;;31.60;23.77;;;14.00;98.40;;;;;;6133349;23;20488;-85
2021/03/24 17:51:25;;;;;;;37.43;28.10;;;14.00;98.50;;;;;;6133098;23;20391;-85
2021/03/24 17:54:03;;;;;;;34.07;26.20;;;13.90;98.50;;;;;;6133100;23;20416;-85
2021/03/24 17:56:39;;;;;;;33.50;25.93;;;13.90;98.60;;;;;;6133131;23;20405;-86
2021/03/24 17:59:41;;;;;;;37.03;28.53;;;13.80;98.60;;;;;;6132702;23;20488;-85
2021/03/24 18:02:20;;;;;;;40.73;35.47;;;13.70;98.60;;;;;;6096564;23;20421;-84
2021/03/24 18:04:57;;;;;;;42.03;33.63;;;13.60;98.60;;;;;;6144273;23;20429;-85
2021/03/24 18:07:32;;;;;;;40.27;31.00;;;13.60;98.70;;;;;;6133160;23;20421;-85
2021/03/24 18:10:03;;;;;;;32.60;27.60;;;13.50;98.70;;;;;;6133288;23;20446;-85
2021/03/24 18:12:42;;;;;;;38.00;28.53;;;13.40;98.70;;;;;;6135311;23;20431;-85
2021/03/24 18:15:21;;;;;;;36.20;28.27;;;13.30;98.70;;;;;;6128954;23;20421;-87
2021/03/24 18:18:00;;;;;;;32.37;26.60;;;13.30;98.80;;;;;;6142067;23;20766;-85
2021/03/24 18:20:32;;;;;;;34.70;26.45;;;13.20;98.80;;;;;;6130070;23;20477;-84
2021/03/24 18:23:09;;;;;;;34.80;27.57;;;13.20;98.80;;;;;;6131128;23;20668;-84
2021/03/24 18:25:41;;;;;;;33.00;25.50;;;13.10;98.80;;;;;;6132110;23;20745;-83
2021/03/24 18:28:23;;;;;;;37.00;26.90;;;13.00;98.90;;;;;;6132396;23;20776;-82
2021/03/24 18:31:06;;;;;;;37.28;28.63;;;12.90;98.90;;;;;;6130772;23;20469;-85
2021/03/24 18:33:43;;;;;;;37.20;26.70;;;13.00;99.00;;;;;;6131013;23;20227;-85
2021/03/24 18:36:16;;;;;;;34.60;27.20;;;12.90;99.00;;;;;;6132209;23;20413;-83
2021/03/24 18:38:53;;;;;;;36.83;27.80;;;12.80;99.10;;;;;;6132999;23;20460;-83
2021/03/24 18:41:22;;;;;;;34.97;26.93;;;12.70;99.10;;;;;;6133629;23;20437;-83
2021/03/24 18:43:56;;;;;;;32.80;26.63;;;12.60;99.20;;;;;;6133988;23;20422;-83
2021/03/24 18:46:25;;;;;;;37.83;27.67;;;12.60;99.20;;;;;;6133770;23;20416;-83
2021/03/24 18:49:08;;;;;;;32.60;27.00;;;12.50;99.20;;;;;;6133916;23;20473;-83
2021/03/24 18:51:43;;;;;;;35.40;27.67;;;12.50;99.30;;;;;;6133885;23;20908;-83
2021/03/24 18:54:31;;;;;;;35.27;27.33;;;12.40;99.30;;;;;;6131539;23;20496;-83
2021/03/24 18:57:05;;;;;;;33.73;25.77;;;12.30;99.40;;;;;;6132652;23;20405;-84
2021/03/24 18:59:36;;;;;;;40.77;28.73;;;12.30;99.40;;;;;;6132822;23;20491;-84
2021/03/24 19:02:30;;;;;;;37.93;28.93;;;12.20;99.50;;;;;;6133590;23;20418;-84
2021/03/24 19:04:59;;;;;;;39.33;29.27;;;12.20;99.50;;;;;;6133677;23;20425;-84
2021/03/24 19:07:36;;;;;;;40.43;29.20;;;12.10;99.50;;;;;;6133945;23;20414;-84
2021/03/24 19:10:09;;;;;;;34.63;27.03;;;12.10;99.60;;;;;;6134543;23;20436;-84
2021/03/24 19:12:40;;;;;;;38.63;28.00;;;12.10;99.70;;;;;;6134989;23;20405;-84
2021/03/24 19:15:40;;;;;;;39.40;27.60;;;12.00;99.70;;;;;;6134467;23;20433;-84
2021/03/24 19:18:36;;;;;;;39.07;30.00;;;12.00;99.80;;;;;;5994520;23;20540;-84
2021/03/24 19:21:20;;;;;;;35.70;29.17;;;12.00;99.80;;;;;;6133096;23;20425;-84
2021/03/24 19:24:27;;;;;;;36.33;29.37;;;11.90;99.80;;;;;;6134599;23;20464;-84
2021/03/24 19:27:06;;;;;;;39.80;30.87;;;11.90;99.90;;;;;;6134638;23;20481;-84
2021/03/24 19:29:37;;;;;;;36.97;29.30;;;11.90;99.90;;;;;;6134161;23;20440;-84
2021/03/24 19:32:31;;;;;;;41.30;29.87;;;11.90;99.90;;;;;;6135283;23;20433;-84
2021/03/24 19:35:27;;;;;;;38.77;29.30;;;11.90;99.90;;;;;;6108204;23;20757;-84
2021/03/24 19:38:16;;;;;;;37.40;29.70;;;11.80;99.90;;;;;;6134506;23;20756;-83
2021/03/24 19:40:46;;;;;;;38.35;30.33;;;11.80;99.90;;;;;;6133600;23;20905;-83
2021/03/24 19:43:49;;;;;;;41.03;30.67;;;11.80;99.90;;;;;;6133230;23;20177;-83
2021/03/24 19:46:39;;;;;;;39.53;31.60;;;11.70;99.90;;;;;;6144996;23;20401;-83
2021/03/24 19:49:17;;;;;;;43.07;30.43;;;11.70;99.90;;;;;;6144210;23;20805;-83
2021/03/24 19:51:49;;;;;;;37.50;30.73;;;11.60;99.90;;;;;;6131598;23;20421;-83
2021/03/24 19:54:21;;;;;;;38.47;29.90;;;11.70;99.90;;;;;;6133939;23;20260;-84
2021/03/24 19:57:16;;;;;;;35.53;27.53;;;11.70;99.90;;;;;;6133618;23;20452;-84
2021/03/24 19:59:53;;;;;;;44.53;33.67;;;11.60;99.90;;;;;;6118376;23;20464;-83
2021/03/24 20:02:31;;;;;;;37.30;30.00;;;11.50;99.90;;;;;;6134972;23;20409;-83
2021/03/24 20:05:16;;;;;;;35.97;30.10;;;11.50;99.90;;;;;;6134209;23;20413;-84
2021/03/24 20:07:57;;;;;;;42.87;33.33;;;11.40;99.90;;;;;;6135425;23;20405;-83
2021/03/24 20:10:33;;;;;;;41.03;32.40;;;11.40;99.90;;;;;;6136223;23;20433;-84
2021/03/24 20:13:10;;;;;;;43.47;32.57;;;11.30;99.90;;;;;;6135333;23;20405;-84
2021/03/24 20:15:39;;;;;;;43.03;34.60;;;11.30;99.90;;;;;;6133540;23;20416;-83
2021/03/24 20:18:16;;;;;;;42.13;34.77;;;11.20;99.90;;;;;;6134266;23;20469;-84
2021/03/24 20:20:46;;;;;;;45.63;34.13;;;11.20;99.90;;;;;;6145477;23;20382;-83
2021/03/24 20:23:15;;;;;;;44.87;34.70;;;11.10;99.90;;;;;;6145763;23;20390;-83
2021/03/24 20:25:44;;;;;;;41.93;33.20;;;11.10;99.90;;;;;;6134312;23;20492;-83
2021/03/24 20:28:27;;;;;;;;;;;;;;;;;;;;;
2021/03/24 20:35:17;;;;;;;45.00;33.87;;;11.00;99.90;;;;;;6133041;23;20918;-83
2021/03/24 20:37:53;;;;;;;47.87;34.40;;;10.90;99.90;;;;;;6133021;23;20413;-84
2021/03/24 20:40:26;;;;;;;47.00;33.83;;;10.90;99.90;;;;;;6133507;23;20416;-84
2021/03/24 20:42:59;;;;;;;40.73;31.10;;;10.80;99.90;;;;;;6133044;23;20406;-83
2021/03/24 20:45:39;;;;;;;41.60;33.17;;;10.80;99.90;;;;;;6133468;23;20417;-83
2021/03/24 20:48:08;;;;;;;42.37;33.50;;;10.70;99.90;;;;;;6132997;23;20437;-83
2021/03/24 20:50:39;;;;;;;43.53;34.70;;;10.70;99.90;;;;;;6133075;23;20437;-83
2021/03/24 20:53:08;;;;;;;41.90;33.10;;;10.60;99.90;;;;;;6144703;23;20875;-83
2021/03/24 20:55:50;;;;;;;41.90;33.87;;;10.60;99.90;;;;;;6134695;23;20401;-85
2021/03/24 20:58:27;;;;;;;44.27;33.33;;;10.50;99.90;;;;;;6142937;23;20427;-84
2021/03/24 21:00:58;;;;;;;40.40;31.57;;;10.50;99.90;;;;;;6143856;23;20393;-83
2021/03/24 21:03:31;;;;;;;42.60;33.50;;;10.40;99.90;;;;;;6144574;23;20385;-84
2021/03/24 21:06:06;;;;;;;46.10;36.23;;;10.40;99.90;;;;;;6133215;23;20481;-84
2021/03/24 21:08:41;;;;;;;46.73;36.17;;;10.40;99.90;;;;;;6132768;23;20492;-84
2021/03/24 21:11:11;;;;;;;49.67;38.20;;;10.30;99.90;;;;;;6133189;23;20480;-84
2021/03/24 21:13:39;;;;;;;43.20;33.43;;;10.30;99.90;;;;;;6132250;23;20457;-85
2021/03/24 21:16:16;;;;;;;44.95;35.65;;;10.20;99.90;;;;;;6131034;23;20740;-85
2021/03/24 21:36:38;;;;;;;41.17;31.73;;;10.00;99.90;;;;;;6154013;23;20549;-79
2021/03/24 21:39:07;;;;;;;40.00;32.77;;;10.00;99.90;;;;;;6132169;23;20436;-79
2021/03/24 21:41:35;;;;;;;41.70;31.40;;;9.90;99.90;;;;;;6169017;23;20397;-79
2021/03/24 21:44:03;;;;;;;41.97;29.70;;;9.90;99.90;;;;;;6168301;23;20396;-79
2021/03/24 21:46:42;;;;;;;37.87;29.63;;;9.90;99.90;;;;;;6132568;23;20494;-79
2021/03/24 21:49:12;;;;;;;35.60;29.10;;;9.90;99.90;;;;;;6132779;23;20440;-79
2021/03/24 21:51:41;;;;;;;39.00;27.20;;;9.90;99.90;;;;;;6132170;23;20408;-79
2021/03/24 21:54:11;;;;;;;32.43;26.53;;;9.90;99.90;;;;;;6132671;23;20471;-79
2021/03/24 21:56:43;;;;;;;41.20;27.37;;;9.90;99.90;;;;;;6133086;23;20416;-79
2021/03/24 21:59:20;;;;;;;36.77;27.90;;;9.90;99.90;;;;;;6168579;23;20416;-79
2021/03/24 22:01:51;;;;;;;30.97;26.40;;;9.80;99.90;;;;;;6168932;23;20919;-79
2021/03/24 22:04:23;;;;;;;33.37;27.60;;;9.80;99.90;;;;;;6133871;23;20413;-79
2021/03/24 22:06:51;;;;;;;33.50;24.93;;;9.80;99.90;;;;;;6171325;23;20436;-79
2021/03/24 22:09:19;;;;;;;32.27;25.80;;;9.80;99.90;;;;;;6170617;23;20460;-79
2021/03/24 22:11:48;;;;;;;34.00;27.40;;;9.70;99.90;;;;;;6134265;23;20416;-79
2021/03/24 22:14:28;;;;;;;38.23;28.30;;;9.70;99.90;;;;;;6134607;23;20455;-79
2021/03/24 22:17:23;;;;;;;34.47;27.23;;;9.60;99.90;;;;;;6171291;23;20391;-79
2021/03/24 22:19:51;;;;;;;36.07;28.77;;;9.60;99.90;;;;;;6106249;23;20455;-79
2021/03/24 22:22:21;;;;;;;38.10;28.43;;;9.50;99.90;;;;;;6170831;23;20415;-79
2021/03/24 22:24:51;;;;;;;39.00;30.33;;;9.40;99.90;;;;;;6170971;23;20768;-79
2021/03/24 22:27:28;;;;;;;38.37;29.40;;;9.40;99.90;;;;;;6134481;23;20416;-79
2021/03/24 22:30:08;;;;;;;44.13;30.67;;;9.30;99.90;;;;;;6170680;23;20479;-79
2021/03/24 22:33:00;;;;;;;42.43;30.93;;;9.30;99.90;;;;;;6134698;23;20459;-79
2021/03/24 22:35:34;;;;;;;39.20;30.63;;;9.20;99.90;;;;;;6140142;23;20428;-79
2021/03/24 22:38:18;;;;;;;39.47;29.37;;;9.20;99.90;;;;;;6159466;23;20439;-79
2021/03/24 22:40:46;;;;;;;38.77;29.17;;;9.10;99.90;;;;;;6158918;23;20412;-79
2021/03/24 22:43:17;;;;;;;41.80;29.87;;;9.10;99.90;;;;;;6159123;23;20420;-79
2021/03/24 22:45:45;;;;;;;35.23;27.70;;;9.00;99.90;;;;;;6157655;23;20420;-79
2021/03/24 22:48:44;;;;;;;42.07;31.87;;;9.00;99.90;;;;;;6159533;23;20503;-79
2021/03/24 22:51:19;;;;;;;39.40;31.77;;;8.90;99.90;;;;;;6136895;23;20448;-79
2021/03/24 22:54:04;;;;;;;42.20;32.87;;;8.80;99.90;;;;;;6171352;23;20384;-79
2021/03/24 22:56:37;;;;;;;39.73;32.57;;;8.80;99.90;;;;;;6171036;23;20506;-80
2021/03/24 22:59:07;;;;;;;43.20;33.37;;;8.70;99.90;;;;;;6171227;23;20416;-79
2021/03/24 23:01:36;;;;;;;41.07;34.90;;;8.70;99.90;;;;;;6159042;23;20428;-79
2021/03/24 23:04:07;;;;;;;47.70;37.93;;;8.60;99.90;;;;;;6159771;23;20419;-79
2021/03/24 23:06:37;;;;;;;46.00;39.30;;;8.50;99.90;;;;;;6159229;23;20484;-79
2021/03/24 23:09:09;;;;;;;46.40;37.67;;;8.50;99.90;;;;;;6158958;23;20506;-79
2021/03/24 23:11:44;;;;;;;46.87;37.47;;;8.50;99.90;;;;;;6159578;23;20922;-79
2021/03/24 23:14:20;;;;;;;52.67;38.67;;;8.40;99.90;;;;;;6159584;23;20412;-79
2021/03/24 23:16:54;;;;;;;45.07;37.23;;;8.30;99.90;;;;;;6170033;23;20388;-79
2021/03/24 23:19:29;;;;;;;48.53;38.67;;;8.30;99.90;;;;;;6159358;23;20428;-79
2021/03/24 23:21:57;;;;;;;46.13;35.67;;;8.30;99.90;;;;;;6159354;23;20416;-79
2021/03/24 23:24:28;;;;;;;45.03;36.50;;;8.20;99.90;;;;;;6159757;23;20907;-79